createdAt,value
2022-10-14T00:00:45.420Z,24.30
2022-10-14T00:03:29.740Z,21.83
2022-10-14T00:08:46.868Z,24.30
2022-10-14T00:11:24.086Z,21.25
2022-10-14T00:13:56.311Z,25.40
2022-10-14T00:16:33.555Z,22.55
2022-10-14T00:19:09.338Z,22.20
2022-10-14T00:21:43.536Z,21.70
2022-10-14T00:24:20.670Z,21.25
2022-10-14T00:26:49.085Z,25.02
2022-10-14T00:29:20.121Z,20.20
2022-10-14T00:31:58.236Z,27.55
2022-10-14T00:34:29.410Z,40.30
2022-10-14T00:39:31.575Z,26.75
2022-10-14T00:42:00.801Z,24.05
2022-10-14T00:44:34.311Z,56.63
2022-10-14T00:47:05.838Z,56.60
2022-10-14T00:49:38.421Z,41.97
2022-10-14T00:52:15.917Z,31.85
2022-10-14T00:55:04.922Z,46.28
2022-10-14T00:57:37.083Z,46.75
2022-10-14T01:00:11.727Z,22.85
2022-10-14T01:02:43.156Z,22.70
2022-10-14T01:05:13.533Z,23.58
2022-10-14T01:07:59.251Z,22.67
2022-10-14T01:10:43.391Z,25.45
2022-10-14T01:13:12.377Z,25.10
2022-10-14T01:15:46.862Z,20.45
2022-10-14T01:21:00.436Z,23.55
2022-10-14T01:23:29.653Z,22.25
2022-10-14T01:26:11.802Z,22.58
2022-10-14T01:28:55.577Z,24.92
2022-10-14T01:31:29.938Z,23.60
2022-10-14T01:34:10.384Z,23.77
2022-10-14T01:36:54.281Z,22.95
2022-10-14T01:39:36.844Z,17.77
2022-10-14T01:42:11.737Z,21.55
2022-10-14T01:44:44.427Z,25.98
2022-10-14T01:47:16.108Z,21.95
2022-10-14T01:49:47.959Z,22.65
2022-10-14T01:52:23.219Z,21.85
2022-10-14T01:54:57.754Z,22.77
2022-10-14T01:57:30.074Z,24.77
2022-10-14T02:00:12.080Z,22.77
2022-10-14T02:02:43.596Z,23.92
2022-10-14T02:05:16.609Z,26.30
2022-10-14T02:07:47.011Z,21.73
2022-10-14T02:10:40.290Z,23.03
2022-10-14T02:13:29.117Z,20.02
2022-10-14T02:16:01.354Z,21.08
2022-10-14T02:18:49.416Z,22.65
2022-10-14T02:21:24.121Z,20.75
2022-10-14T02:24:21.665Z,24.73
2022-10-14T02:26:52.730Z,22.88
2022-10-14T02:29:22.816Z,25.35
2022-10-14T02:31:58.217Z,23.80
2022-10-14T02:34:29.692Z,24.02
2022-10-14T02:37:02.094Z,25.75
2022-10-14T02:39:38.653Z,27.40
2022-10-14T02:42:15.535Z,27.50
2022-10-14T02:45:00.543Z,28.77
2022-10-14T02:47:32.727Z,23.88
2022-10-14T02:50:05.510Z,21.33
2022-10-14T02:52:37.462Z,29.55
2022-10-14T02:55:06.341Z,24.98
2022-10-14T02:57:37.924Z,24.73
2022-10-14T03:00:08.969Z,23.42
2022-10-14T03:02:39.620Z,22.23
2022-10-14T03:05:10.308Z,26.75
2022-10-14T03:07:41.137Z,23.48
2022-10-14T03:10:14.461Z,26.27
2022-10-14T03:12:53.931Z,24.02
2022-10-14T03:15:30.883Z,22.02
2022-10-14T03:18:01.504Z,20.70
2022-10-14T03:20:41.720Z,24.10
2022-10-14T03:23:12.339Z,27.98
2022-10-14T03:25:47.109Z,26.88
2022-10-14T03:28:23.808Z,36.38
2022-10-14T03:31:07.072Z,23.13
2022-10-14T03:33:53.449Z,31.27
2022-10-14T03:36:27.798Z,27.45
2022-10-14T03:38:59.994Z,27.27
2022-10-14T03:41:48.187Z,32.15
2022-10-14T03:44:20.322Z,27.08
2022-10-14T03:47:23.613Z,38.05
2022-10-14T03:49:54.008Z,50.97
2022-10-14T03:52:46.656Z,34.88
2022-10-14T03:55:29.310Z,76.55
2022-10-14T03:58:00.731Z,51.38
2022-10-14T04:00:31.793Z,52.28
2022-10-14T04:03:18.236Z,50.10
2022-10-14T04:05:51.270Z,41.33
2022-10-14T04:08:26.090Z,31.77
2022-10-14T04:11:03.168Z,34.17
2022-10-14T04:13:49.728Z,29.20
2022-10-14T04:16:20.489Z,32.83
2022-10-14T04:19:30.128Z,31.92
2022-10-14T04:22:00.355Z,34.38
2022-10-14T04:24:29.590Z,25.73
2022-10-14T04:27:02.910Z,31.95
2022-10-14T04:29:42.039Z,30.70
2022-10-14T04:32:23.507Z,31.90
2022-10-14T04:34:56.635Z,31.60
2022-10-14T04:37:31.850Z,30.25
2022-10-14T04:40:30.157Z,31.73
2022-10-14T04:43:07.049Z,31.08
2022-10-14T04:45:57.059Z,30.45
2022-10-14T04:49:02.627Z,27.90
2022-10-14T04:51:47.682Z,31.27
2022-10-14T04:54:28.072Z,35.00
2022-10-14T04:57:00.759Z,34.03
2022-10-14T04:59:31.989Z,36.53
2022-10-14T05:02:21.101Z,30.00
2022-10-14T05:05:04.543Z,37.05
2022-10-14T05:07:50.972Z,38.85
2022-10-14T05:10:48.837Z,30.73
2022-10-14T05:13:34.828Z,40.30
2022-10-14T05:16:18.028Z,37.85
2022-10-14T05:18:46.848Z,37.55
2022-10-14T05:21:17.833Z,36.53
2022-10-14T05:23:57.460Z,45.05
2022-10-14T05:26:31.989Z,40.65
2022-10-14T05:29:11.169Z,34.60
2022-10-14T05:31:42.741Z,41.20
2022-10-14T05:34:38.048Z,34.50
2022-10-14T05:37:10.688Z,37.38
2022-10-14T05:39:47.045Z,37.75
2022-10-14T05:42:39.693Z,42.35
2022-10-14T05:45:26.624Z,37.72
2022-10-14T05:47:58.109Z,42.80
2022-10-14T05:50:36.316Z,36.03
2022-10-14T05:53:14.950Z,34.38
2022-10-14T05:55:51.933Z,38.13
2022-10-14T05:58:32.522Z,33.60
2022-10-14T06:01:04.104Z,33.03
2022-10-14T06:03:44.037Z,33.25
2022-10-14T06:06:15.629Z,31.80
2022-10-14T06:08:45.413Z,31.67
2022-10-14T06:11:16.548Z,36.55
2022-10-14T06:13:46.861Z,32.55
2022-10-14T06:16:15.222Z,43.55
2022-10-14T06:18:44.223Z,34.83
2022-10-14T06:21:18.468Z,36.05
2022-10-14T06:26:35.136Z,40.85
2022-10-14T06:29:05.212Z,31.48
2022-10-14T06:31:41.812Z,33.40
2022-10-14T06:34:12.444Z,33.10
2022-10-14T06:36:46.551Z,37.55
2022-10-14T06:39:15.877Z,36.47
2022-10-14T06:41:45.955Z,31.35
2022-10-14T06:44:23.402Z,34.20
2022-10-14T06:46:52.765Z,32.28
2022-10-14T06:49:23.984Z,45.45
2022-10-14T06:52:01.611Z,32.08
2022-10-14T06:54:38.997Z,26.98
2022-10-14T06:57:08.836Z,26.08
2022-10-14T06:59:42.145Z,26.98
2022-10-14T07:02:15.059Z,25.67
2022-10-14T07:04:45.962Z,31.42
2022-10-14T07:07:17.654Z,27.23
2022-10-14T07:09:47.740Z,25.08
2022-10-14T07:12:18.740Z,25.58
2022-10-14T07:15:10.404Z,24.23
2022-10-14T07:17:42.044Z,28.63
2022-10-14T07:20:16.914Z,23.40
2022-10-14T07:22:47.099Z,32.60
2022-10-14T07:25:17.075Z,23.70
2022-10-14T07:28:01.930Z,26.08
2022-10-14T07:30:35.416Z,28.63
2022-10-14T07:33:24.144Z,26.75
2022-10-14T07:36:04.984Z,25.30
2022-10-14T07:38:37.817Z,28.75
2022-10-14T07:41:16.656Z,30.33
2022-10-14T07:43:53.377Z,34.03
2022-10-14T07:46:33.328Z,32.53
2022-10-14T07:49:12.908Z,29.63
2022-10-14T07:51:45.077Z,37.40
2022-10-14T07:54:20.250Z,36.22
2022-10-14T07:56:50.804Z,45.80
2022-10-14T07:59:20.231Z,35.92
2022-10-14T08:01:54.489Z,41.08
2022-10-14T08:04:24.615Z,32.80
2022-10-14T08:06:54.231Z,37.08
2022-10-14T08:09:23.059Z,32.85
2022-10-14T08:11:51.818Z,32.10
2022-10-14T08:14:25.113Z,29.77
2022-10-14T08:16:55.739Z,28.73
2022-10-14T08:19:24.308Z,36.10
2022-10-14T08:21:53.471Z,31.73
2022-10-14T08:24:23.453Z,39.10
2022-10-14T08:26:57.098Z,51.00
2022-10-14T08:29:27.004Z,38.65
2022-10-14T08:31:56.046Z,34.10
2022-10-14T08:34:24.642Z,36.08
2022-10-14T08:36:54.230Z,36.85
2022-10-14T08:39:23.961Z,37.58
2022-10-14T08:42:16.225Z,31.65
2022-10-14T08:45:09.198Z,33.63
2022-10-14T08:47:42.755Z,29.70
2022-10-14T08:50:35.485Z,29.65
2022-10-14T08:53:12.300Z,31.33
2022-10-14T08:55:45.288Z,27.27
2022-10-14T08:58:41.735Z,31.10
2022-10-14T09:01:23.754Z,27.60
2022-10-14T09:04:08.686Z,30.05
2022-10-14T09:06:39.296Z,29.27
2022-10-14T09:09:10.008Z,28.70
2022-10-14T09:11:53.245Z,26.48
2022-10-14T09:14:24.829Z,36.78
2022-10-14T09:17:01.810Z,29.50
2022-10-14T09:19:34.832Z,33.65
2022-10-14T09:22:03.878Z,28.17
2022-10-14T09:24:37.081Z,28.08
2022-10-14T09:27:22.023Z,45.95
2022-10-14T09:30:19.095Z,27.98
2022-10-14T09:32:51.919Z,32.45
2022-10-14T09:35:33.680Z,30.42
2022-10-14T09:38:06.226Z,27.63
2022-10-14T09:40:42.275Z,34.17
2022-10-14T09:43:13.147Z,30.00
2022-10-14T09:45:50.756Z,25.65
2022-10-14T09:48:39.738Z,30.55
2022-10-14T09:51:34.926Z,29.08
2022-10-14T09:54:05.245Z,28.60
2022-10-14T09:56:41.614Z,32.55
2022-10-14T09:59:19.122Z,39.58
2022-10-14T10:01:54.298Z,26.75
2022-10-14T10:04:37.349Z,37.92
2022-10-14T10:07:24.362Z,44.50
2022-10-14T10:10:35.336Z,27.90
2022-10-14T10:13:08.707Z,33.17
2022-10-14T10:15:41.882Z,29.50
2022-10-14T10:18:24.702Z,27.08
2022-10-14T10:21:09.406Z,27.73
2022-10-14T10:23:37.865Z,36.13
2022-10-14T10:26:26.119Z,28.40
2022-10-14T10:28:58.695Z,26.65
2022-10-14T10:32:08.637Z,28.95
2022-10-14T10:35:15.940Z,25.25
2022-10-14T10:37:53.797Z,27.02
2022-10-14T10:41:05.328Z,26.20
2022-10-14T10:43:50.053Z,37.78
2022-10-14T10:46:41.569Z,25.15
2022-10-14T10:49:33.225Z,26.90
2022-10-14T10:52:23.833Z,28.40
2022-10-14T10:55:05.042Z,26.00
2022-10-14T10:57:49.280Z,25.52
2022-10-14T11:00:28.030Z,26.23
2022-10-14T11:03:04.160Z,23.60
2022-10-14T11:05:51.984Z,44.77
2022-10-14T11:08:43.590Z,64.18
2022-10-14T11:11:50.237Z,28.15
2022-10-14T11:14:22.570Z,26.52
2022-10-14T11:17:16.136Z,30.23
2022-10-14T11:19:52.081Z,32.58
2022-10-14T11:23:04.771Z,25.63
2022-10-14T11:26:04.188Z,44.38
2022-10-14T11:29:04.734Z,30.30
2022-10-14T11:32:04.696Z,25.15
2022-10-14T11:35:18.113Z,25.35
2022-10-14T11:38:21.091Z,26.35
2022-10-14T11:41:20.361Z,26.65
2022-10-14T11:43:57.543Z,26.52
2022-10-14T11:46:35.773Z,27.75
2022-10-14T11:49:16.897Z,24.25
2022-10-14T11:52:12.138Z,26.45
2022-10-14T11:54:43.077Z,24.58
2022-10-14T11:57:44.288Z,33.17
2022-10-14T12:00:24.512Z,24.95
2022-10-14T12:03:16.404Z,30.15
2022-10-14T12:06:17.514Z,25.30
2022-10-14T12:08:55.404Z,23.80
2022-10-14T12:11:54.142Z,28.08
2022-10-14T12:14:50.261Z,32.67
2022-10-14T12:17:24.953Z,26.42
2022-10-14T12:19:56.262Z,29.27
2022-10-14T12:22:43.838Z,27.30
2022-10-14T12:25:23.578Z,24.73
2022-10-14T12:28:02.894Z,31.38
2022-10-14T12:30:40.722Z,27.83
2022-10-14T12:33:22.858Z,32.00
2022-10-14T12:36:00.216Z,28.75
2022-10-14T12:38:38.526Z,27.85
2022-10-14T12:41:33.426Z,25.60
2022-10-14T12:44:11.428Z,29.33
2022-10-14T12:46:46.748Z,30.45
2022-10-14T12:49:37.853Z,32.60
2022-10-14T12:52:08.378Z,25.98
2022-10-14T12:54:48.823Z,28.48
2022-10-14T12:57:36.244Z,24.67
2022-10-14T13:00:23.864Z,28.02
2022-10-14T13:03:03.446Z,24.98
2022-10-14T13:05:51.779Z,23.40
2022-10-14T13:08:20.554Z,23.38
2022-10-14T13:11:01.644Z,23.45
2022-10-14T13:13:47.972Z,23.58
2022-10-14T13:16:17.395Z,24.88
2022-10-14T13:18:46.431Z,37.55
2022-10-14T13:21:40.518Z,24.05
2022-10-14T13:24:36.826Z,24.98
2022-10-14T13:27:30.215Z,23.27
2022-10-14T13:30:08.367Z,25.05
2022-10-14T13:32:46.581Z,24.70
2022-10-14T13:35:33.848Z,26.90
2022-10-14T13:38:15.990Z,25.38
2022-10-14T13:40:48.218Z,433.05
2022-10-14T13:43:27.059Z,56.90
2022-10-14T13:46:07.583Z,29.77
2022-10-14T13:51:45.330Z,25.85
2022-10-14T13:54:31.275Z,22.95
2022-10-14T13:57:42.673Z,21.20
2022-10-14T14:02:51.836Z,23.95
2022-10-14T14:08:38.812Z,33.42
2022-10-14T14:11:16.107Z,20.85
2022-10-14T14:14:00.710Z,24.25
2022-10-14T14:16:36.857Z,27.33
2022-10-14T14:19:34.711Z,20.88
2022-10-14T14:22:19.810Z,21.98
2022-10-14T14:24:51.525Z,24.27
2022-10-14T14:27:26.333Z,22.17
2022-10-14T14:30:02.204Z,25.02
2022-10-14T14:32:41.496Z,31.42
2022-10-14T14:35:15.307Z,31.23
2022-10-14T14:37:55.534Z,33.65
2022-10-14T14:40:28.871Z,28.27
2022-10-14T14:43:08.133Z,24.83
2022-10-14T14:45:46.883Z,42.63
2022-10-14T14:48:20.684Z,34.53
2022-10-14T14:50:53.591Z,34.35
2022-10-14T14:56:10.342Z,60.80
2022-10-14T14:58:44.237Z,56.15
2022-10-14T15:01:28.463Z,60.25
2022-10-14T15:04:13.341Z,88.40
2022-10-14T15:07:02.343Z,68.88
2022-10-14T15:09:46.720Z,53.35
2022-10-14T15:15:36.034Z,116.72
2022-10-14T15:18:30.924Z,74.70
2022-10-14T15:21:12.478Z,87.53
2022-10-14T15:23:53.460Z,83.30
2022-10-14T15:26:31.614Z,75.60
2022-10-14T15:29:08.364Z,84.20
2022-10-14T15:31:39.038Z,90.80
2022-10-14T15:34:20.748Z,98.63
2022-10-14T15:36:56.349Z,106.28
2022-10-14T15:39:27.309Z,109.03
2022-10-14T15:42:06.748Z,116.88
2022-10-14T15:44:37.807Z,122.88
2022-10-14T15:47:21.311Z,140.45
2022-10-14T15:49:52.750Z,130.77
2022-10-14T15:52:41.964Z,133.07
2022-10-14T15:55:19.885Z,133.23
2022-10-14T15:57:49.927Z,118.22
2022-10-14T16:00:19.407Z,118.82
2022-10-14T16:02:49.224Z,163.85
2022-10-14T16:05:33.265Z,216.82
2022-10-14T16:08:06.712Z,137.45
2022-10-14T16:10:36.369Z,108.30
2022-10-14T16:13:16.232Z,149.65
2022-10-14T16:15:49.941Z,167.05
2022-10-14T16:18:29.653Z,119.38
2022-10-14T16:21:01.667Z,100.63
2022-10-14T16:23:36.042Z,108.97
2022-10-14T16:26:06.665Z,93.68
2022-10-14T16:28:35.252Z,90.47
2022-10-14T16:31:07.564Z,167.75
2022-10-14T16:33:37.537Z,151.60
2022-10-14T16:36:20.664Z,286.23
2022-10-14T16:38:50.925Z,190.18
2022-10-14T16:41:21.101Z,170.98
2022-10-14T16:43:57.345Z,148.82
2022-10-14T16:46:48.755Z,145.90
2022-10-14T16:49:18.880Z,239.18
2022-10-14T16:51:47.648Z,167.55
2022-10-14T16:54:17.424Z,207.48
2022-10-14T16:56:55.091Z,131.20
2022-10-14T16:59:31.381Z,96.68
2022-10-14T17:02:02.301Z,87.95
2022-10-14T17:04:30.923Z,84.30
2022-10-14T17:07:07.466Z,155.02
2022-10-14T17:09:45.911Z,150.32
2022-10-14T17:12:25.678Z,130.48
2022-10-14T17:14:55.550Z,88.38
2022-10-14T17:17:26.388Z,69.57
2022-10-14T17:19:54.866Z,83.72
2022-10-14T17:22:25.053Z,76.55
2022-10-14T17:24:55.032Z,63.47
2022-10-14T17:27:25.019Z,90.60
2022-10-14T17:29:54.828Z,66.90
2022-10-14T17:32:31.436Z,81.93
2022-10-14T17:35:07.006Z,78.50
2022-10-14T17:37:38.287Z,65.43
2022-10-14T17:40:13.690Z,93.65
2022-10-14T17:42:50.626Z,83.07
2022-10-14T17:45:30.855Z,70.15
2022-10-14T17:48:00.859Z,67.15
2022-10-14T17:50:30.812Z,58.63
2022-10-14T17:53:07.227Z,80.75
2022-10-14T17:55:39.074Z,70.88
2022-10-14T17:58:08.189Z,69.45
2022-10-14T18:00:41.856Z,59.35
2022-10-14T18:03:11.522Z,66.15
2022-10-14T18:05:46.540Z,54.58
2022-10-14T18:08:26.667Z,66.95
2022-10-14T18:10:58.234Z,60.10
2022-10-14T18:13:33.212Z,58.97
2022-10-14T18:16:28.764Z,58.22
2022-10-14T18:18:57.596Z,52.55
2022-10-14T18:21:27.686Z,65.20
2022-10-14T18:24:03.002Z,50.95
2022-10-14T18:26:34.326Z,61.40
2022-10-14T18:29:03.623Z,57.70
2022-10-14T18:31:34.933Z,68.20
2022-10-14T18:34:06.111Z,65.93
2022-10-14T18:36:45.000Z,148.90
2022-10-14T18:39:13.948Z,58.92
2022-10-14T18:41:44.070Z,68.95
2022-10-14T18:44:14.439Z,128.02
2022-10-14T18:46:44.186Z,91.38
2022-10-14T18:49:14.602Z,152.35
2022-10-14T18:51:44.182Z,169.25
2022-10-14T18:54:23.819Z,76.25
2022-10-14T18:56:56.136Z,51.70
2022-10-14T18:59:24.868Z,55.97
2022-10-14T19:02:03.069Z,134.65
2022-10-14T19:04:33.898Z,62.05
2022-10-14T19:07:02.035Z,154.73
2022-10-14T19:09:33.936Z,84.18
2022-10-14T19:12:22.867Z,78.68
2022-10-14T19:14:51.725Z,58.92
2022-10-14T19:17:19.761Z,51.67
2022-10-14T19:19:55.160Z,45.38
2022-10-14T19:22:27.640Z,52.53
2022-10-14T19:25:02.837Z,51.20
2022-10-14T19:27:33.632Z,58.67
2022-10-14T19:30:03.923Z,45.40
2022-10-14T19:32:33.574Z,49.45
2022-10-14T19:35:04.157Z,48.35
2022-10-14T19:37:33.917Z,57.78
2022-10-14T19:40:03.205Z,49.65
2022-10-14T19:42:35.937Z,45.65
2022-10-14T19:45:08.124Z,44.65
2022-10-14T19:47:46.786Z,45.75
2022-10-14T19:50:16.659Z,46.63
2022-10-14T19:52:46.342Z,44.95
2022-10-14T19:55:14.629Z,42.55
2022-10-14T19:57:43.699Z,45.38
2022-10-14T20:00:16.678Z,45.28
2022-10-14T20:02:47.060Z,47.90
2022-10-14T20:05:17.845Z,45.97
2022-10-14T20:07:47.317Z,47.17
2022-10-14T20:10:21.452Z,50.20
2022-10-14T20:12:58.249Z,49.08
2022-10-14T20:15:27.877Z,44.55
2022-10-14T20:18:07.508Z,288.45
2022-10-14T20:20:40.568Z,61.15
2022-10-14T20:23:12.291Z,61.60
2022-10-14T20:25:41.840Z,87.85
2022-10-14T20:28:12.393Z,65.93
2022-10-14T20:30:42.766Z,72.00
2022-10-14T20:33:11.461Z,80.97
2022-10-14T20:35:40.250Z,80.03
2022-10-14T20:38:10.144Z,71.85
2022-10-14T20:40:38.702Z,95.13
2022-10-14T20:43:10.898Z,53.63
2022-10-14T20:45:49.328Z,73.50
2022-10-14T20:48:22.159Z,60.83
2022-10-14T20:50:50.652Z,74.55
2022-10-14T20:53:20.661Z,59.83
2022-10-14T20:55:52.007Z,62.17
2022-10-14T20:58:23.644Z,132.27
2022-10-14T21:00:52.148Z,122.65
2022-10-14T21:03:22.077Z,113.88
2022-10-14T21:05:51.912Z,65.35
2022-10-14T21:08:21.228Z,54.20
2022-10-14T21:10:52.397Z,72.55
2022-10-14T21:13:24.015Z,61.35
2022-10-14T21:16:00.476Z,63.20
2022-10-14T21:18:42.479Z,51.55
2022-10-14T21:21:16.540Z,52.55
2022-10-14T21:23:48.471Z,54.90
2022-10-14T21:26:20.712Z,50.92
2022-10-14T21:28:59.137Z,57.92
2022-10-14T21:31:33.527Z,55.53
2022-10-14T21:34:08.757Z,55.03
2022-10-14T21:36:39.799Z,55.88
2022-10-14T21:39:15.652Z,50.67
2022-10-14T21:41:53.454Z,51.08
2022-10-14T21:44:24.695Z,56.95
2022-10-14T21:46:54.120Z,47.97
2022-10-14T21:49:30.766Z,50.97
2022-10-14T21:52:11.235Z,48.17
2022-10-14T21:54:40.969Z,49.60
2022-10-14T21:57:12.388Z,59.05
2022-10-14T21:59:43.285Z,64.60
2022-10-14T22:02:14.180Z,61.28
2022-10-14T22:04:48.907Z,64.63
2022-10-14T22:07:18.061Z,49.53
2022-10-14T22:09:48.886Z,55.08
2022-10-14T22:12:18.754Z,96.35
2022-10-14T22:14:47.941Z,102.05
2022-10-14T22:17:18.883Z,59.65
2022-10-14T22:19:48.877Z,67.47
2022-10-14T22:22:28.037Z,50.20
2022-10-14T22:24:58.263Z,86.50
2022-10-14T22:27:27.708Z,54.70
2022-10-14T22:30:03.732Z,48.72
2022-10-14T22:32:33.135Z,49.25
2022-10-14T22:35:07.435Z,54.35
2022-10-14T22:37:36.874Z,44.30
2022-10-14T22:40:13.779Z,46.38
2022-10-14T22:42:42.769Z,45.20
2022-10-14T22:45:13.979Z,45.05
2022-10-14T22:47:44.407Z,48.50
2022-10-14T22:50:19.498Z,43.53
2022-10-14T22:52:50.033Z,52.20
2022-10-14T22:55:19.899Z,52.15
2022-10-14T22:57:53.463Z,47.00
2022-10-14T23:00:22.834Z,48.63
2022-10-14T23:02:52.614Z,41.13
2022-10-14T23:05:22.661Z,46.25
2022-10-14T23:07:53.428Z,40.03
2022-10-14T23:10:24.920Z,45.63
2022-10-14T23:13:11.234Z,43.53
2022-10-14T23:15:41.123Z,49.03
2022-10-14T23:18:09.953Z,47.10
2022-10-14T23:20:40.750Z,48.00
2022-10-14T23:23:18.160Z,96.90
2022-10-14T23:25:46.950Z,182.43
2022-10-14T23:28:23.761Z,85.28
2022-10-14T23:30:53.583Z,86.20
2022-10-14T23:33:23.239Z,64.13
2022-10-14T23:35:53.658Z,59.45
2022-10-14T23:38:23.521Z,48.33
2022-10-14T23:40:53.608Z,77.95
2022-10-14T23:43:24.270Z,80.07
2022-10-14T23:45:55.281Z,48.45
2022-10-14T23:48:24.795Z,71.78
2022-10-14T23:50:53.567Z,60.25
2022-10-14T23:53:36.257Z,55.55
2022-10-14T23:56:08.885Z,51.22
2022-10-14T23:58:38.814Z,47.90
